Flight Track Log - Related Links

Times and Time Zones

All times are in EST time to prevent confusion due to time zone crossing. See the GPD312A flight status page for this flight to view local times or setup timezone preferences in your user account.

Time Position Orientation Groundspeed Altitude Reporting Facility
EST Latitude Longitude Course Direction KTS MPH feet Rate Location/Type
Sun 12:09:08 PM 18.3833 -63.8000 268° West 180 207 10,600  Level San Juan Center
Sun 12:34:16 PM 18.3333 -64.9833 247° West 80 92 200 -414 Descending San Juan Center
Sun 12:35:00 PM 18.4022 -64.7529 247° West  Level FlightAware Approximate
Sun 12:36:00 PM 18.3859 -64.7935 247° West  Level FlightAware Approximate
Sun 12:37:00 PM 18.3761 -64.8363 258° West  Level FlightAware Approximate
Sun 12:38:00 PM 18.3675 -64.8794 258° West  Level FlightAware Approximate
Sun 12:38:00 PM 18.3373 -64.9734 90° East  Level Estimated
Sun 12:39:00 PM 18.3519 -64.9202 247° West  Level FlightAware Approximate
Sun 12:45:00 PM 18.3373 -64.9734 247° West  Level Estimated
Sun 12:46:00 PM 18.3373 -64.9734 247° West  Level Estimated
Sun 12:47:00 PM 18.3373 -64.9734 247° West  Level Estimated
Sun 12:48:00 PM 18.3373 -64.9734 247° West  Level Estimated
Sun 12:49:00 PM 18.3373 -64.9734 247° West  Level Estimated
Sun 12:50:00 PM 18.3373 -64.9734 247° West  Level Estimated
Sun 12:51:00 PM 18.3373 -64.9734 247° West  Level Estimated
Sun 12:52:00 PM 18.3373 -64.9734 247° West  Level Estimated
Sun 12:53:00 PM 18.3373 -64.9734 247° West  Level Estimated
Sun 12:54:00 PM 18.3373 -64.9734 247° West  Level Estimated
Sun 12:55:00 PM 18.3373 -64.9734 247° West  Level Estimated
Sun 12:56:00 PM 18.3373 -64.9734 247° West  Level Estimated
Sun 12:57:00 PM 18.3373 -64.9734 247° West  Level Estimated
Sun 12:58:00 PM 18.3373 -64.9734 247° West  Level Estimated
Sun 12:59:00 PM 18.3373 -64.9734 247° West  Level Estimated
Sun 01:00:00 PM 18.3373 -64.9734 247° West  Level Estimated
Sun 01:01:00 PM 18.3373 -64.9734 247° West  Level Estimated
Sun 01:02:00 PM 18.3373 -64.9734 247° West  Level Estimated
Sun 01:03:00 PM 18.3373 -64.9734 247° West  Level Estimated
Sun 01:04:00 PM 18.3373 -64.9734 247° West  Level Estimated
Sun 01:05:00 PM 18.3373 -64.9734 247° West  Level Estimated
Sun 01:06:00 PM 18.3373 -64.9734 247° West  Level Estimated
Sun 01:07:00 PM 18.3373 -64.9734 247° West  Level Estimated
Sun 01:08:00 PM 18.3373 -64.9734 247° West  Level Estimated
Sun 01:09:00 PM 18.3373 -64.9734 247° West  Level Estimated
Sun 01:10:00 PM 18.3373 -64.9734 247° West  Level Estimated
Sun 01:11:00 PM 18.3373 -64.9734 247° West  Level Estimated
Sun 01:12:00 PM 18.3373 -64.9734 247° West  Level Estimated
Sun 01:13:00 PM 18.3373 -64.9734 247° West  Level Estimated
Sun 01:14:00 PM 18.3373 -64.9734 247° West  Level Estimated
Sun 01:15:00 PM 18.3373 -64.9734 247° West  Level Estimated
Sun 01:16:00 PM 18.3373 -64.9734 247° West  Level Estimated
Sun 01:17:00 PM 18.3373 -64.9734 247° West  Level Estimated
Sun 01:18:00 PM 18.3373 -64.9734 247° West  Level Estimated
Sun 01:19:00 PM 18.3373 -64.9734 247° West  Level Estimated

Login

Don't have an account? Register now (free) for customized features, flight alerts, and more!